Time;durP1;ratioP1;P1;durP2;ratioP2;P2;SDS_P1;SDS_P2;PMS_P1;PMS_P2;Temp;Humidity;BMP_temperature;BMP_pressure;BME280_temperature;BME280_humidity;BME280_pressure;Samples;Min_cycle;Max_cycle;Signal;HPM_P1;HPM_P2
2021/06/14 00:00:44;;;;;;;7.50;5.65;;;;;;;21.93;59.98;100778.44;5029326;28;20045;-66
2021/06/14 00:03:11;;;;;;;7.55;5.32;;;;;;;21.85;60.08;100775.13;5029332;28;20041;-66
2021/06/14 00:05:41;;;;;;;8.48;4.68;;;;;;;21.76;60.19;100772.69;5028929;28;20084;-66
2021/06/14 00:08:10;;;;;;;8.40;4.70;;;;;;;21.64;60.27;100771.28;5029506;28;20037;-66
2021/06/14 00:10:40;;;;;;;9.25;4.85;;;;;;;21.55;60.52;100771.53;5029156;28;20520;-66
2021/06/14 00:13:09;;;;;;;6.47;4.97;;;;;;;21.59;60.19;100766.97;5028952;28;20136;-66
2021/06/14 00:15:38;;;;;;;6.68;4.97;;;;;;;21.68;60.17;100774.72;5029282;28;20038;-66
2021/06/14 00:18:06;;;;;;;8.30;5.30;;;;;;;21.77;59.87;100774.47;5028861;28;20374;-66
2021/06/14 00:20:34;;;;;;;7.90;5.18;;;;;;;21.72;59.99;100768.34;5029111;28;20041;-66
2021/06/14 00:23:02;;;;;;;8.25;5.78;;;;;;;21.67;60.42;100771.16;5027398;28;20041;-66
2021/06/14 00:25:32;;;;;;;7.57;5.68;;;;;;;21.76;60.38;100780.75;5028897;28;20124;-67
2021/06/14 00:28:02;;;;;;;7.93;5.80;;;;;;;21.71;60.66;100769.28;5029242;28;20132;-66
2021/06/14 00:30:31;;;;;;;8.30;5.65;;;;;;;21.57;60.81;100771.47;5024601;28;20690;-66
2021/06/14 00:32:59;;;;;;;8.93;5.97;;;;;;;21.58;60.81;100773.25;5028617;28;20037;-66
2021/06/14 00:35:27;;;;;;;7.85;5.35;;;;;;;21.51;61.16;100767.19;5028746;28;20124;-66
2021/06/14 00:37:55;;;;;;;6.60;4.55;;;;;;;21.45;60.90;100772.72;5029221;28;20048;-66
2021/06/14 00:40:23;;;;;;;8.00;5.30;;;;;;;21.37;60.88;100778.31;5028506;28;20041;-67
2021/06/14 00:42:50;;;;;;;7.10;4.93;;;;;;;21.30;61.19;100776.72;5029009;28;20121;-66
2021/06/14 00:45:24;;;;;;;7.25;4.88;;;;;;;21.42;61.07;100764.75;5029193;28;20079;-66
2021/06/14 00:47:52;;;;;;;7.22;5.47;;;;;;;21.50;60.69;100768.09;5028882;28;21234;-66
2021/06/14 00:50:22;;;;;;;7.18;5.30;;;;;;;21.38;60.79;100763.09;5028866;28;20136;-66
2021/06/14 00:52:50;;;;;;;8.38;5.75;;;;;;;21.19;61.13;100767.22;5024708;28;20509;-66
2021/06/14 00:55:20;;;;;;;8.07;6.25;;;;;;;21.21;61.41;100762.66;5028348;28;20033;-66
2021/06/14 00:57:47;;;;;;;7.57;5.53;;;;;;;21.31;60.88;100765.06;5028575;28;20033;-66
2021/06/14 01:00:16;;;;;;;9.52;5.68;;;;;;;21.36;60.99;100768.50;5027128;28;20049;-66
2021/06/14 01:02:49;;;;;;;7.18;4.75;;;;;;;20.97;61.38;100766.88;5027397;28;20437;-66
2021/06/14 01:05:19;;;;;;;6.68;4.45;;;;;;;20.49;63.02;100766.34;5028283;28;20517;-66
2021/06/14 01:07:46;;;;;;;8.98;4.45;;;;;;;20.33;63.54;100759.63;5028698;28;20129;-66
2021/06/14 01:10:15;;;;;;;6.68;5.15;;;;;;;20.32;63.35;100772.09;5028660;28;20037;-67
2021/06/14 01:12:57;;;;;;;7.22;5.10;;;;;;;20.41;63.26;100761.19;5028756;28;20492;-67
2021/06/14 01:15:28;;;;;;;7.20;4.82;;;;;;;20.79;62.37;100760.22;5028041;28;20079;-67
2021/06/14 01:18:03;;;;;;;7.03;5.38;;;;;;;21.11;61.31;100766.50;5027890;28;20045;-67
2021/06/14 01:20:50;;;;;;;6.75;5.15;;;;;;;21.22;60.79;100761.75;5046077;28;20492;-66
2021/06/14 01:23:54;;;;;;;6.60;4.60;;;;;;;21.03;61.25;100758.66;5034838;28;20041;-66
2021/06/14 01:26:23;;;;;;;7.47;4.65;;;;;;;20.91;61.69;100750.94;5051373;28;20547;-67
2021/06/14 01:28:56;;;;;;;8.18;5.20;;;;;;;20.93;61.39;100747.31;5051587;28;20464;-66
2021/06/14 01:31:26;;;;;;;6.55;4.20;;;;;;;20.83;61.56;100747.56;5051864;28;20048;-66
2021/06/14 01:33:54;;;;;;;6.30;4.78;;;;;;;20.83;61.39;100753.84;5051422;28;20033;-66
2021/06/14 01:36:26;;;;;;;7.93;4.95;;;;;;;20.99;61.00;100738.22;5050645;28;20041;-66
2021/06/14 01:38:57;;;;;;;10.30;5.03;;;;;;;21.01;61.08;100741.72;5051104;28;20183;-67
2021/06/14 01:41:27;;;;;;;6.53;4.75;;;;;;;21.04;60.98;100739.84;5050573;28;20370;-67
2021/06/14 01:43:58;;;;;;;7.30;5.40;;;;;;;21.04;60.60;100739.84;5051426;28;20045;-67
2021/06/14 01:46:28;;;;;;;9.48;4.55;;;;;;;20.93;60.96;100741.06;5033958;28;20045;-66
2021/06/14 01:48:56;;;;;;;7.32;4.30;;;;;;;20.88;61.18;100737.59;5051651;28;20132;-66
2021/06/14 01:51:27;;;;;;;6.32;4.90;;;;;;;20.87;61.07;100736.72;5051194;28;20167;-66
2021/06/14 01:54:05;;;;;;;8.63;5.03;;;;;;;20.84;61.26;100735.94;5052067;28;20045;-67
2021/06/14 01:56:35;;;;;;;5.28;4.28;;;;;;;20.38;62.15;100742.50;5051133;28;20070;-67
2021/06/14 01:59:06;;;;;;;7.55;4.63;;;;;;;20.20;63.20;100737.56;5051507;28;20041;-66
2021/06/14 02:01:36;;;;;;;7.40;4.75;;;;;;;20.11;63.46;100745.81;5050991;28;20068;-66
2021/06/14 02:04:05;;;;;;;6.10;4.32;;;;;;;20.05;63.42;100733.44;5051107;28;20060;-66
2021/06/14 02:06:37;;;;;;;7.45;4.80;;;;;;;20.08;63.44;100740.53;5051164;28;20064;-66
2021/06/14 02:09:09;;;;;;;8.57;5.18;;;;;;;20.12;63.58;100732.38;5050919;28;20033;-66
2021/06/14 02:11:38;;;;;;;6.53;4.80;;;;;;;20.16;63.54;100733.16;5046306;28;20047;-66
2021/06/14 02:14:08;;;;;;;7.85;4.88;;;;;;;20.19;63.46;100725.06;5048188;28;20501;-66
2021/06/14 02:16:39;;;;;;;7.78;5.25;;;;;;;20.13;63.74;100722.53;5048685;28;20091;-66
2021/06/14 02:19:07;;;;;;;6.72;4.88;;;;;;;20.13;63.62;100719.84;5050189;28;20041;-66
2021/06/14 02:21:35;;;;;;;8.77;5.03;;;;;;;20.13;63.55;100714.50;5050517;28;20033;-66
2021/06/14 02:24:02;;;;;;;7.00;4.75;;;;;;;20.13;63.53;100711.81;5051932;28;20124;-66
2021/06/14 02:26:30;;;;;;;9.27;5.10;;;;;;;20.02;64.27;100716.56;5051300;28;20051;-66
2021/06/14 02:28:58;;;;;;;6.63;4.90;;;;;;;19.95;64.23;100712.25;5050409;28;20121;-66
2021/06/14 02:31:27;;;;;;;8.25;5.05;;;;;;;19.84;64.75;100708.00;5050231;28;20429;-66
2021/06/14 02:33:55;;;;;;;7.53;4.63;;;;;;;19.82;64.63;100712.53;5050341;28;20120;-66
2021/06/14 02:36:24;;;;;;;7.88;4.45;;;;;;;19.86;64.64;100703.50;5050839;28;20565;-67
2021/06/14 02:38:53;;;;;;;6.65;4.80;;;;;;;19.91;64.62;100703.41;5050742;28;20144;-67
2021/06/14 02:41:21;;;;;;;5.20;3.95;;;;;;;19.88;64.52;100711.53;5050382;28;20512;-67
2021/06/14 02:43:50;;;;;;;9.15;4.45;;;;;;;19.81;64.71;100715.25;5050156;28;20056;-67
2021/06/14 02:46:20;;;;;;;5.97;4.10;;;;;;;19.70;64.98;100714.59;5050657;28;20052;-66
2021/06/14 02:48:52;;;;;;;8.25;5.00;;;;;;;19.73;65.00;100711.88;5050719;28;20040;-67
2021/06/14 02:51:21;;;;;;;7.93;4.97;;;;;;;19.77;64.75;100711.75;5049024;28;20119;-66
2021/06/14 02:54:03;;;;;;;7.28;4.65;;;;;;;19.80;64.35;100714.38;5048147;28;20036;-67
2021/06/14 02:56:32;;;;;;;7.20;4.80;;;;;;;19.77;64.44;100721.59;5029256;28;20041;-66
2021/06/14 02:59:01;;;;;;;6.47;4.65;;;;;;;19.74;64.64;100719.00;5028653;28;20482;-66
2021/06/14 03:01:32;;;;;;;7.43;4.15;;;;;;;19.70;64.85;100711.91;5030356;28;20042;-66
2021/06/14 03:04:03;;;;;;;9.52;4.88;;;;;;;19.69;64.97;100715.53;5050718;28;20127;-66
2021/06/14 03:06:31;;;;;;;6.38;4.25;;;;;;;19.72;65.06;100716.34;5050766;28;20117;-67
2021/06/14 03:09:00;;;;;;;7.60;4.60;;;;;;;19.69;65.22;100716.38;5041802;28;20703;-67
2021/06/14 03:11:30;;;;;;;7.43;4.32;;;;;;;19.62;65.27;100716.59;5030804;28;20065;-67
2021/06/14 03:13:59;;;;;;;5.88;4.43;;;;;;;19.57;65.25;100710.44;5030366;28;20736;-66
2021/06/14 03:16:30;;;;;;;7.30;5.35;;;;;;;19.68;65.51;100716.44;5029900;28;20038;-67
2021/06/14 03:18:58;;;;;;;6.32;4.25;;;;;;;19.77;65.40;100713.53;5029956;28;20740;-66
2021/06/14 03:21:30;;;;;;;7.70;4.70;;;;;;;19.83;65.71;100716.97;5029730;28;20095;-66
2021/06/14 03:23:58;;;;;;;7.10;4.40;;;;;;;19.94;65.63;100716.72;5030046;28;20493;-66
2021/06/14 03:26:30;;;;;;;8.98;4.35;;;;;;;20.07;65.25;100720.88;5029995;28;20059;-67
2021/06/14 03:28:59;;;;;;;6.13;3.92;;;;;;;20.01;65.61;100721.03;5029968;28;20056;-66
2021/06/14 03:31:29;;;;;;;6.38;4.10;;;;;;;20.13;65.91;100714.50;5029128;28;20125;-67
2021/06/14 03:33:58;;;;;;;6.63;4.07;;;;;;;20.35;65.69;100723.78;5027876;28;20452;-66
2021/06/14 03:36:30;;;;;;;8.40;3.75;;;;;;;20.59;64.96;100725.84;5028340;28;20048;-66
2021/06/14 03:38:59;;;;;;;6.10;3.85;;;;;;;20.72;64.55;100721.03;5029452;28;20038;-67
2021/06/14 03:41:27;;;;;;;5.28;3.70;;;;;;;20.83;64.74;100727.00;5029158;28;20120;-67
2021/06/14 03:43:55;;;;;;;6.30;3.75;;;;;;;20.94;64.16;100724.88;5029257;28;20077;-67
2021/06/14 03:46:23;;;;;;;5.05;3.38;;;;;;;21.15;63.98;100719.84;5029271;28;20128;-67
2021/06/14 03:48:51;;;;;;;4.10;3.28;;;;;;;21.35;63.61;100722.88;5029005;28;20095;-67
2021/06/14 03:51:18;;;;;;;5.22;3.45;;;;;;;21.54;63.30;100728.56;5029097;28;20041;-67
2021/06/14 03:53:56;;;;;;;4.57;3.00;;;;;;;21.68;63.09;100724.56;5029352;28;20036;-67
2021/06/14 03:56:25;;;;;;;7.53;4.93;;;;;;;21.82;62.15;100721.44;5029423;28;20046;-66
2021/06/14 03:58:52;;;;;;;4.43;3.30;;;;;;;21.82;61.68;100727.69;5029796;28;20045;-66
2021/06/14 04:01:20;;;;;;;5.00;3.40;;;;;;;21.89;61.71;100723.00;5029259;28;20041;-66
2021/06/14 04:03:57;;;;;;;4.75;2.75;;;;;;;22.11;61.68;100724.13;5029262;28;20525;-67
2021/06/14 04:06:24;;;;;;;4.85;3.08;;;;;;;22.21;61.36;100722.00;5029317;28;20037;-67
2021/06/14 04:08:53;;;;;;;5.30;3.15;;;;;;;22.39;60.65;100723.19;5029263;28;20045;-67
2021/06/14 04:11:21;;;;;;;4.25;3.20;;;;;;;22.62;60.29;100717.94;5028823;28;20076;-66
2021/06/14 04:13:50;;;;;;;4.57;2.95;;;;;;;22.86;60.36;100718.91;5029383;28;20037;-67
2021/06/14 04:16:17;;;;;;;5.10;3.00;;;;;;;23.12;59.55;100712.56;5029305;28;20037;-67
2021/06/14 04:18:45;;;;;;;3.85;3.03;;;;;;;23.36;59.40;100715.25;5029215;28;20452;-67
2021/06/14 04:21:13;;;;;;;7.40;2.90;;;;;;;23.57;58.59;100712.69;5029313;28;20121;-67
2021/06/14 04:23:41;;;;;;;3.45;2.90;;;;;;;23.77;58.20;100710.06;5028819;28;20507;-67
2021/06/14 04:26:13;;;;;;;7.22;2.88;;;;;;;24.01;57.50;100722.59;5017721;28;20140;-67
2021/06/14 04:28:41;;;;;;;3.45;2.60;;;;;;;24.25;57.18;100718.06;5029258;28;20465;-67
2021/06/14 04:31:09;;;;;;;4.05;2.60;;;;;;;24.53;56.41;100712.38;5028445;28;20120;-67
2021/06/14 04:33:37;;;;;;;3.30;2.25;;;;;;;24.77;55.66;100705.91;5029545;28;20061;-67
2021/06/14 04:36:05;;;;;;;4.63;2.22;;;;;;;25.02;54.89;100712.00;5029010;28;20112;-67
2021/06/14 04:38:33;;;;;;;4.90;2.75;;;;;;;25.29;54.12;100700.88;5018538;28;20034;-67
2021/06/14 04:41:01;;;;;;;4.57;2.85;;;;;;;25.53;53.20;100712.41;5048668;28;20138;-67
2021/06/14 04:43:30;;;;;;;4.43;2.45;;;;;;;25.74;52.31;100706.88;5048529;28;20120;-67
2021/06/14 04:45:58;;;;;;;3.75;2.30;;;;;;;25.99;51.42;100711.13;5048233;28;20036;-67
2021/06/14 04:48:25;;;;;;;7.60;2.00;;;;;;;26.29;50.95;100709.63;5047452;28;20048;-67
2021/06/14 04:50:53;;;;;;;3.17;2.00;;;;;;;26.62;49.49;100706.16;5048755;28;20124;-67
2021/06/14 04:53:21;;;;;;;3.92;2.38;;;;;;;26.94;48.91;100710.78;5045741;28;20036;-67
2021/06/14 04:55:48;;;;;;;6.35;2.30;;;;;;;27.18;48.12;100703.16;5048678;28;20136;-67
2021/06/14 04:58:16;;;;;;;5.13;2.30;;;;;;;27.50;47.11;100712.28;5050794;28;20048;-67
2021/06/14 05:00:45;;;;;;;4.15;2.33;;;;;;;27.84;46.61;100709.44;5052748;28;20060;-67
2021/06/14 05:03:13;;;;;;;4.47;2.53;;;;;;;28.10;45.60;100719.69;5052804;28;20448;-67
2021/06/14 05:05:40;;;;;;;3.65;2.40;;;;;;;28.38;45.08;100724.41;5052920;28;20041;-67
2021/06/14 05:08:08;;;;;;;3.53;2.38;;;;;;;28.72;44.78;100725.13;5052244;28;20051;-67
2021/06/14 05:10:36;;;;;;;5.45;2.53;;;;;;;28.97;43.88;100730.84;5051805;28;20231;-67
2021/06/14 05:13:03;;;;;;;3.00;1.90;;;;;;;29.24;43.33;100731.88;5041126;28;20132;-67
2021/06/14 05:15:31;;;;;;;3.00;2.20;;;;;;;29.48;43.17;100729.47;5044109;28;20038;-67
2021/06/14 05:18:00;;;;;;;5.60;2.17;;;;;;;29.67;42.35;100737.34;5039418;28;20048;-67
2021/06/14 05:20:30;;;;;;;3.47;2.33;;;;;;;29.80;42.00;100734.72;5031226;28;20037;-67
2021/06/14 05:22:57;;;;;;;3.17;2.00;;;;;;;30.00;41.15;100740.63;5032112;28;20041;-67
2021/06/14 05:25:25;;;;;;;3.08;1.90;;;;;;;30.14;40.72;100741.59;5032285;28;20509;-67
2021/06/14 05:27:53;;;;;;;3.15;2.00;;;;;;;30.36;39.81;100741.91;5030996;28;20029;-67
2021/06/14 05:30:21;;;;;;;2.30;1.90;;;;;;;30.36;39.64;100744.63;5048898;28;20037;-67
2021/06/14 05:32:49;;;;;;;4.38;2.25;;;;;;;30.47;39.29;100750.22;5050458;28;20045;-67
2021/06/14 05:35:18;;;;;;;3.35;2.40;;;;;;;30.44;39.36;100748.63;5051324;28;20114;-67
2021/06/14 05:37:47;;;;;;;2.45;1.90;;;;;;;30.54;39.23;100743.44;5049894;28;20057;-67
2021/06/14 05:40:16;;;;;;;3.15;2.00;;;;;;;30.80;38.42;100749.81;5050688;28;20082;-67
2021/06/14 05:42:43;;;;;;;3.22;2.05;;;;;;;31.07;38.50;100747.94;5051696;28;20048;-67
2021/06/14 05:45:12;;;;;;;3.08;2.00;;;;;;;31.55;38.12;100748.19;5050018;28;20037;-67
2021/06/14 05:47:39;;;;;;;3.70;2.30;;;;;;;31.72;37.70;100747.88;5052189;28;20049;-67
2021/06/14 05:50:08;;;;;;;3.83;2.55;;;;;;;31.79;36.95;100745.56;5041522;28;20528;-67
2021/06/14 05:52:38;;;;;;;3.50;2.15;;;;;;;31.87;36.51;100748.63;5049001;28;20116;-67
2021/06/14 05:55:07;;;;;;;7.05;2.30;;;;;;;31.97;36.83;100752.41;5051735;28;20495;-67
2021/06/14 05:57:35;;;;;;;3.50;2.40;;;;;;;31.81;36.46;100754.53;5048990;28;20485;-67
2021/06/14 06:00:05;;;;;;;5.55;2.22;;;;;;;31.84;36.93;100754.28;5047946;28;20037;-67
2021/06/14 06:02:33;;;;;;;4.80;2.05;;;;;;;31.84;36.72;100755.16;5032586;28;20090;-67
2021/06/14 06:05:01;;;;;;;5.45;2.30;;;;;;;31.97;36.51;100756.00;5052052;28;20127;-67
2021/06/14 06:07:28;;;;;;;3.45;2.10;;;;;;;31.90;36.33;100753.88;5050943;28;20131;-68
2021/06/14 06:09:57;;;;;;;4.20;2.40;;;;;;;31.85;37.02;100753.31;5048098;28;20123;-67
2021/06/14 06:12:24;;;;;;;4.00;2.45;;;;;;;32.02;36.96;100762.03;5051183;28;20041;-67
2021/06/14 06:14:52;;;;;;;3.22;2.05;;;;;;;32.15;36.43;100763.88;5042473;28;20044;-68
2021/06/14 06:17:20;;;;;;;4.55;2.38;;;;;;;32.30;36.50;100751.78;5047783;28;20116;-67
2021/06/14 06:19:48;;;;;;;5.43;2.55;;;;;;;32.42;36.09;100757.22;5048792;28;20061;-67
2021/06/14 06:22:16;;;;;;;4.45;2.30;;;;;;;32.43;36.30;100752.59;5038287;28;20120;-67
2021/06/14 06:24:44;;;;;;;5.22;2.45;;;;;;;32.52;36.77;100756.50;5034055;28;20049;-67
2021/06/14 06:27:13;;;;;;;3.75;2.10;;;;;;;32.55;36.49;100756.28;5030368;28;20052;-67
2021/06/14 06:29:41;;;;;;;3.30;2.10;;;;;;;32.50;36.67;100763.94;5030393;28;20043;-67
2021/06/14 06:32:09;;;;;;;5.18;2.35;;;;;;;32.58;36.74;100758.78;5030096;28;20400;-67
2021/06/14 06:34:37;;;;;;;4.82;2.20;;;;;;;32.55;37.33;100764.50;5030966;28;20557;-67
2021/06/14 06:37:05;;;;;;;6.75;2.58;;;;;;;32.43;37.43;100758.06;5030839;28;20108;-67
2021/06/14 06:39:32;;;;;;;4.07;2.22;;;;;;;32.35;37.81;100750.47;5026483;28;20092;-67
2021/06/14 06:42:01;;;;;;;5.55;2.50;;;;;;;32.47;38.25;100766.94;5011607;28;20116;-68
2021/06/14 06:44:30;;;;;;;5.60;2.70;;;;;;;31.38;39.24;100756.69;5022136;28;20044;-67
2021/06/14 06:47:00;;;;;;;6.35;2.72;;;;;;;30.71;40.62;100761.38;5031357;28;20571;-67
2021/06/14 06:49:28;;;;;;;4.07;2.38;;;;;;;31.28;39.61;100761.94;5031165;28;20057;-68
2021/06/14 06:51:55;;;;;;;3.20;2.40;;;;;;;31.64;39.06;100758.47;5030983;28;20141;-67
2021/06/14 06:54:23;;;;;;;7.63;2.33;;;;;;;30.94;40.35;100751.59;5030749;28;20061;-68
2021/06/14 06:56:53;;;;;;;5.97;2.67;;;;;;;30.98;40.64;100745.84;5029242;28;20064;-67
2021/06/14 06:59:22;;;;;;;6.53;2.75;;;;;;;30.47;42.08;100753.84;5035609;28;20056;-67
2021/06/14 07:01:52;;;;;;;5.65;2.90;;;;;;;31.08;40.97;100746.97;5045397;28;20084;-67
2021/06/14 07:04:19;;;;;;;7.07;3.30;;;;;;;31.53;40.81;100751.03;5031151;28;20044;-67
2021/06/14 07:06:46;;;;;;;6.82;2.75;;;;;;;31.96;40.35;100756.13;5030629;28;20116;-67
2021/06/14 07:09:14;;;;;;;5.80;3.08;;;;;;;31.50;40.49;100744.94;5030466;28;20037;-67
2021/06/14 07:11:42;;;;;;;8.43;3.25;;;;;;;30.79;41.78;100748.06;5030318;28;20033;-67
2021/06/14 07:14:10;;;;;;;7.35;3.10;;;;;;;31.26;40.87;100747.53;5030191;28;20103;-67
2021/06/14 07:16:39;;;;;;;6.80;2.58;;;;;;;31.77;40.33;100745.66;5030630;28;20103;-67
2021/06/14 07:19:08;;;;;;;9.48;3.10;;;;;;;32.20;39.82;100737.94;5030606;28;20053;-67
2021/06/14 07:21:36;;;;;;;5.63;2.72;;;;;;;31.77;40.30;100733.91;5029601;28;20113;-67
2021/06/14 07:24:04;;;;;;;8.98;2.97;;;;;;;31.10;41.03;100742.28;5030034;28;20037;-67
2021/06/14 07:26:32;;;;;;;5.18;2.88;;;;;;;31.51;40.53;100742.06;5030135;28;20053;-67
2021/06/14 07:29:00;;;;;;;7.75;2.60;;;;;;;31.10;41.51;100750.47;5030307;28;20037;-67
2021/06/14 07:31:27;;;;;;;9.00;3.40;;;;;;;30.57;42.38;100751.41;5030318;28;20132;-68
2021/06/14 07:33:58;;;;;;;7.78;3.88;;;;;;;30.18;43.15;100751.31;5029740;28;20045;-67
2021/06/14 07:36:26;;;;;;;8.50;3.33;;;;;;;29.86;43.80;100751.56;5030002;28;20095;-67
2021/06/14 07:38:55;;;;;;;10.57;2.85;;;;;;;29.99;43.69;100749.81;5030357;28;20049;-68
2021/06/14 07:41:23;;;;;;;4.85;2.83;;;;;;;29.94;43.84;100772.84;5029862;28;20137;-67
2021/06/14 07:43:51;;;;;;;8.52;3.58;;;;;;;30.28;43.61;100756.03;5029855;28;20096;-67
2021/06/14 07:46:19;;;;;;;8.27;3.28;;;;;;;30.85;42.67;100751.25;5029610;28;20106;-67
2021/06/14 07:48:48;;;;;;;9.25;3.40;;;;;;;30.69;42.65;100758.75;5029071;28;20201;-67
2021/06/14 07:51:16;;;;;;;7.65;3.10;;;;;;;30.28;43.25;100758.78;5029473;28;20163;-67
2021/06/14 07:53:50;;;;;;;8.05;3.60;;;;;;;29.93;43.61;100752.91;5028798;28;20029;-67
2021/06/14 07:56:20;;;;;;;8.27;3.30;;;;;;;30.31;43.94;100758.59;5028395;28;20041;-67
2021/06/14 07:58:49;;;;;;;6.30;3.25;;;;;;;30.83;43.05;100764.13;5027902;28;20057;-68
2021/06/14 08:01:18;;;;;;;7.90;3.30;;;;;;;30.67;43.39;100757.97;5024515;28;20044;-67
2021/06/14 08:03:49;;;;;;;9.65;3.55;;;;;;;31.00;43.33;100762.09;5031818;28;20096;-67
2021/06/14 08:06:16;;;;;;;7.22;3.10;;;;;;;31.39;42.79;100759.31;5034957;28;20073;-67
2021/06/14 08:08:46;;;;;;;7.13;3.15;;;;;;;31.66;42.54;100767.44;5042981;28;20032;-67
2021/06/14 08:11:13;;;;;;;8.63;3.20;;;;;;;31.77;42.20;100763.94;5038292;28;20045;-67
2021/06/14 08:13:42;;;;;;;10.20;3.42;;;;;;;32.37;41.29;100773.06;5037254;28;20049;-68
2021/06/14 08:16:09;;;;;;;9.10;3.28;;;;;;;32.61;41.28;100773.09;5032025;28;20568;-67
2021/06/14 08:18:42;;;;;;;7.65;2.80;;;;;;;32.80;40.82;100783.53;5030280;28;20056;-67
2021/06/14 08:26:37;;;;;;;7.03;2.72;;;;;;;33.39;39.91;100776.16;5025508;28;20171;-67
2021/06/14 08:29:05;;;;;;;6.90;2.53;;;;;;;33.57;39.00;100769.22;5045207;28;20470;-67
2021/06/14 08:31:34;;;;;;;9.15;2.67;;;;;;;33.48;38.76;100780.00;5048791;28;20041;-67
2021/06/14 08:34:02;;;;;;;5.38;2.92;;;;;;;33.02;39.29;100766.31;5028732;28;20120;-67
2021/06/14 08:36:31;;;;;;;6.47;2.85;;;;;;;33.09;38.53;100767.56;5029135;28;20065;-68
2021/06/14 08:39:00;;;;;;;4.70;2.35;;;;;;;33.32;37.55;100765.81;5028741;28;20045;-68
2021/06/14 08:41:28;;;;;;;6.05;2.45;;;;;;;33.65;36.85;100765.84;5033886;28;20041;-68
2021/06/14 08:43:59;;;;;;;5.25;2.45;;;;;;;34.01;35.96;100773.84;5029975;28;20038;-67
2021/06/14 08:46:27;;;;;;;5.55;2.67;;;;;;;34.15;35.41;100774.56;5047380;28;20125;-69
2021/06/14 08:48:55;;;;;;;4.70;2.13;;;;;;;34.20;34.41;100764.94;5035380;28;20041;-68
2021/06/14 08:51:24;;;;;;;6.00;2.88;;;;;;;33.84;35.83;100763.41;5038068;28;20043;-68
2021/06/14 08:53:52;;;;;;;7.03;3.00;;;;;;;33.61;37.37;100764.34;5024578;28;20120;-68
2021/06/14 08:56:24;;;;;;;6.38;3.60;;;;;;;33.57;37.72;100765.59;5018625;28;20050;-69
2021/06/14 08:58:53;;;;;;;7.25;2.50;;;;;;;33.71;38.01;100772.72;5028692;28;20121;-69
2021/06/14 09:01:21;;;;;;;4.80;2.50;;;;;;;33.75;37.07;100764.13;5047019;28;20033;-67
2021/06/14 09:03:48;;;;;;;5.90;2.50;;;;;;;33.81;36.42;100766.38;5036738;28;20048;-68
2021/06/14 09:06:15;;;;;;;8.15;2.83;;;;;;;33.94;36.43;100761.63;5034969;28;20048;-69
2021/06/14 09:08:55;;;;;;;7.65;3.05;;;;;;;34.25;35.97;100765.50;5029019;28;20072;-68
2021/06/14 09:11:24;;;;;;;8.50;2.88;;;;;;;34.48;35.50;100776.41;5029499;28;20037;-68
2021/06/14 09:13:52;;;;;;;8.20;2.75;;;;;;;34.61;35.33;100783.47;5034289;28;20034;-69
2021/06/14 09:16:19;;;;;;;5.97;2.88;;;;;;;34.68;35.35;100776.47;5047180;28;20128;-68
2021/06/14 09:18:49;;;;;;;7.00;2.90;;;;;;;34.65;35.76;100775.88;5040595;28;20167;-68
2021/06/14 09:21:18;;;;;;;7.00;2.80;;;;;;;34.50;36.13;100772.53;5029587;28;20042;-68
2021/06/14 09:23:48;;;;;;;5.85;2.90;;;;;;;34.33;36.85;100778.59;5028600;28;20056;-68
2021/06/14 09:26:26;;;;;;;8.80;3.03;;;;;;;33.73;37.31;100768.88;5028570;28;20029;-68
2021/06/14 09:28:56;;;;;;;7.40;3.40;;;;;;;33.45;38.65;100783.00;5031671;28;20049;-68
2021/06/14 09:31:26;;;;;;;5.20;2.60;;;;;;;33.31;38.57;100791.44;5023914;28;20524;-68
2021/06/14 09:33:53;;;;;;;7.47;2.88;;;;;;;33.56;38.53;100785.75;5028955;28;20045;-68
2021/06/14 09:36:22;;;;;;;5.75;3.13;;;;;;;33.78;38.57;100782.19;5043333;28;20041;-69
2021/06/14 09:38:50;;;;;;;6.38;2.97;;;;;;;33.75;38.47;100788.78;5040883;28;20156;-69
2021/06/14 09:41:21;;;;;;;7.07;2.85;;;;;;;33.22;39.03;100782.06;5030268;28;20044;-68
2021/06/14 09:43:52;;;;;;;7.70;3.17;;;;;;;33.33;39.83;100790.34;5028572;28;20049;-68
2021/06/14 09:46:28;;;;;;;5.93;2.63;;;;;;;33.81;39.48;100781.94;5030789;28;20509;-68
2021/06/14 09:48:57;;;;;;;6.53;2.90;;;;;;;33.90;38.97;100790.28;5031680;28;20041;-68
2021/06/14 09:51:26;;;;;;;10.20;3.22;;;;;;;34.06;38.97;100789.06;5031856;28;20056;-68
2021/06/14 09:53:55;;;;;;;6.00;2.65;;;;;;;33.93;38.57;100787.31;5021577;28;20578;-67
2021/06/14 09:56:25;;;;;;;9.77;3.17;;;;;;;33.94;38.31;100797.25;5043864;28;20048;-69
2021/06/14 09:58:56;;;;;;;6.13;2.95;;;;;;;33.94;38.43;100788.16;5038149;28;20056;-68
2021/06/14 10:01:25;;;;;;;7.53;2.78;;;;;;;33.71;39.53;100791.91;5034899;28;20037;-69
2021/06/14 10:03:54;;;;;;;5.20;2.70;;;;;;;33.59;39.99;100786.41;5038466;28;20037;-68
2021/06/14 10:06:33;;;;;;;10.82;3.10;;;;;;;33.57;39.88;100799.34;5033401;28;20127;-68
2021/06/14 10:09:01;;;;;;;5.95;2.90;;;;;;;33.29;40.29;100793.41;5037299;28;20064;-68
2021/06/14 10:11:39;;;;;;;8.38;3.47;;;;;;;33.47;39.74;100789.25;5047078;28;20556;-69
2021/06/14 10:14:11;;;;;;;7.55;2.97;;;;;;;33.69;39.39;100778.28;5040730;28;20047;-68
2021/06/14 10:16:42;;;;;;;8.70;3.20;;;;;;;34.12;38.47;100788.53;5028084;28;20505;-68
2021/06/14 10:19:13;;;;;;;5.72;2.90;;;;;;;33.90;38.60;100793.03;5029661;28;20125;-68
2021/06/14 10:21:44;;;;;;;5.28;2.95;;;;;;;33.44;39.38;100797.69;5029653;28;20489;-67
2021/06/14 10:24:15;;;;;;;8.38;3.30;;;;;;;33.08;39.83;100782.28;5030621;28;20041;-67
2021/06/14 10:26:46;;;;;;;7.15;3.15;;;;;;;32.57;40.73;100778.91;5030450;28;20412;-67
2021/06/14 10:29:18;;;;;;;8.82;3.05;;;;;;;32.12;41.15;100780.44;5030095;28;20049;-67
2021/06/14 10:31:49;;;;;;;8.32;2.80;;;;;;;32.28;41.20;100779.25;5030913;28;20136;-67
2021/06/14 10:34:18;;;;;;;7.15;2.90;;;;;;;32.56;40.51;100786.22;5030980;28;20099;-67
2021/06/14 10:36:51;;;;;;;8.98;3.40;;;;;;;32.48;40.39;100794.16;5029658;28;20034;-68
2021/06/14 10:39:22;;;;;;;6.68;3.45;;;;;;;31.89;41.23;100790.34;5030938;28;20449;-68
2021/06/14 10:41:49;;;;;;;6.13;3.33;;;;;;;31.40;42.72;100784.75;5031202;28;20067;-68
2021/06/14 10:44:18;;;;;;;7.38;3.42;;;;;;;31.38;43.05;100784.84;5031086;28;20042;-67
2021/06/14 10:46:48;;;;;;;13.10;3.17;;;;;;;31.41;42.62;100783.78;5028624;28;20493;-69
2021/06/14 10:49:17;;;;;;;6.15;2.67;;;;;;;30.69;43.98;100787.88;5050384;28;20462;-67
2021/06/14 10:51:46;;;;;;;7.88;3.30;;;;;;;30.43;44.75;100795.91;5050020;28;20535;-68
2021/06/14 10:54:16;;;;;;;7.22;3.50;;;;;;;30.62;44.40;100806.50;5047840;28;20048;-68
2021/06/14 10:56:45;;;;;;;7.57;2.88;;;;;;;30.40;44.71;100803.41;5040352;28;20048;-68
2021/06/14 10:59:14;;;;;;;9.10;2.75;;;;;;;29.57;46.52;100794.22;5049996;28;20056;-68
2021/06/14 11:01:45;;;;;;;9.70;3.05;;;;;;;28.76;48.42;100800.09;5050141;28;20139;-68
2021/06/14 11:04:24;;;;;;;10.75;2.70;;;;;;;28.36;49.02;100787.94;5049872;28;20037;-67
2021/06/14 11:06:54;;;;;;;7.90;3.17;;;;;;;28.78;48.85;100793.63;5050320;28;20037;-68
2021/06/14 11:09:21;;;;;;;8.57;3.42;;;;;;;29.22;47.73;100790.94;5050598;28;20571;-67
2021/06/14 11:11:53;;;;;;;7.18;2.80;;;;;;;29.16;48.17;100791.31;5047624;28;20041;-68
2021/06/14 11:14:35;;;;;;;13.00;3.10;;;;;;;29.22;47.71;100785.50;5049548;28;20061;-68
2021/06/14 11:17:17;;;;;;;10.93;3.25;;;;;;;29.16;47.96;100785.88;5050157;28;20056;-68
2021/06/14 11:19:46;;;;;;;11.98;2.97;;;;;;;28.75;48.90;100785.63;5027465;28;20042;-68
2021/06/14 11:22:15;;;;;;;10.77;3.38;;;;;;;28.91;48.23;100781.03;5041878;28;20036;-67
2021/06/14 11:24:43;;;;;;;9.70;3.20;;;;;;;28.87;48.55;100781.34;5045565;28;20037;-67
2021/06/14 11:27:12;;;;;;;9.68;2.92;;;;;;;29.01;48.44;100772.34;5033203;28;20515;-66
2021/06/14 11:29:44;;;;;;;8.50;3.03;;;;;;;29.42;47.72;100767.97;5034365;28;20117;-66
2021/06/14 11:32:19;;;;;;;10.63;2.78;;;;;;;29.59;47.13;100772.38;5033834;28;20115;-68
2021/06/14 11:34:50;;;;;;;11.82;3.05;;;;;;;29.18;47.89;100773.06;5049866;28;20041;-67
2021/06/14 11:37:18;;;;;;;5.72;2.50;;;;;;;29.31;47.30;100771.34;5035267;28;20069;-68
2021/06/14 11:39:46;;;;;;;9.65;3.20;;;;;;;29.51;47.30;100770.13;5036159;28;20452;-67